createdAt,value
2018-01-30T00:00:44.572Z,5.64
2018-01-30T00:02:06.244Z,5.64
2018-01-30T00:03:28.378Z,5.71
2018-01-30T00:04:50.276Z,5.6
2018-01-30T00:06:12.144Z,5.51
2018-01-30T00:07:34.269Z,5.39
2018-01-30T00:08:55.887Z,5.36
2018-01-30T00:10:17.844Z,5.42
2018-01-30T00:11:39.383Z,5.54
2018-01-30T00:13:01.262Z,5.43
2018-01-30T00:14:23.401Z,5.42
2018-01-30T00:15:45.422Z,5.39
2018-01-30T00:17:07.536Z,5.43
2018-01-30T00:18:29.124Z,5.46
2018-01-30T00:19:50.979Z,5.45
2018-01-30T00:21:12.322Z,5.38
2018-01-30T00:22:34.264Z,5.42
2018-01-30T00:23:55.867Z,5.51
2018-01-30T00:25:18.038Z,5.43
2018-01-30T00:26:39.658Z,5.53
2018-01-30T00:28:01.292Z,5.56
2018-01-30T00:29:22.902Z,5.64
2018-01-30T00:30:44.762Z,5.67
2018-01-30T00:32:06.620Z,5.81
2018-01-30T00:33:28.245Z,5.78
2018-01-30T00:34:50.408Z,5.78
2018-01-30T00:36:12.524Z,5.68
2018-01-30T00:37:34.205Z,5.64
2018-01-30T00:38:56.311Z,5.56
2018-01-30T00:40:17.928Z,5.39
2018-01-30T00:41:39.369Z,5.51
2018-01-30T00:43:01.588Z,5.4
2018-01-30T00:44:23.342Z,5.36
2018-01-30T00:45:45.457Z,5.28
2018-01-30T00:47:07.442Z,5.15
2018-01-30T00:48:29.119Z,5.04
2018-01-30T00:49:51.235Z,4.97
2018-01-30T00:51:13.110Z,4.97
2018-01-30T00:52:34.967Z,4.91
2018-01-30T00:53:56.843Z,4.77
2018-01-30T00:55:18.952Z,4.78
2018-01-30T00:56:40.291Z,4.8
2018-01-30T00:58:02.418Z,4.82
2018-01-30T00:59:24.558Z,4.86
2018-01-30T01:00:46.162Z,4.84
2018-01-30T01:02:08.022Z,4.82
2018-01-30T01:03:30.141Z,4.72
2018-01-30T01:04:51.739Z,4.82
2018-01-30T01:06:13.869Z,4.85
2018-01-30T01:07:35.994Z,4.96
2018-01-30T01:08:57.873Z,5.02
2018-01-30T01:10:19.806Z,5.06
2018-01-30T01:11:41.740Z,5.06
2018-01-30T01:13:03.388Z,5
2018-01-30T01:14:25.600Z,5.12
2018-01-30T01:15:47.468Z,5.09
2018-01-30T01:17:09.322Z,5.12
2018-01-30T01:18:30.658Z,5.15
2018-01-30T01:19:52.502Z,5.13
2018-01-30T01:21:14.623Z,5.18
2018-01-30T01:22:36.352Z,5.17
2018-01-30T01:23:58.198Z,5.15
2018-01-30T01:25:20.332Z,5.2
2018-01-30T01:26:42.224Z,5.25
2018-01-30T01:28:04.102Z,5.24
2018-01-30T01:29:26.103Z,5.28
2018-01-30T01:30:48.225Z,5.25
2018-01-30T01:32:10.477Z,5.42
2018-01-30T01:33:32.453Z,5.43
2018-01-30T01:34:54.310Z,5.43
2018-01-30T01:36:16.164Z,5.49
2018-01-30T01:37:38.274Z,5.53
2018-01-30T01:38:59.969Z,5.57
2018-01-30T01:40:21.933Z,5.58
2018-01-30T01:41:43.811Z,5.65
2018-01-30T01:43:05.714Z,5.65
2018-01-30T01:44:27.560Z,5.54
2018-01-30T01:45:49.413Z,5.49
2018-01-30T01:47:11.546Z,5.45
2018-01-30T01:48:33.616Z,5.35
2018-01-30T01:49:55.522Z,5.35
2018-01-30T01:51:16.596Z,5.39
2018-01-30T01:52:38.190Z,5.45
2018-01-30T01:54:00.317Z,5.48
2018-01-30T01:55:22.178Z,5.57
2018-01-30T01:56:44.051Z,5.56
2018-01-30T01:58:05.961Z,5.51
2018-01-30T01:59:28.083Z,5.56
2018-01-30T02:00:49.944Z,5.56
2018-01-30T02:02:11.511Z,5.46
2018-01-30T02:03:33.367Z,5.39
2018-01-30T02:04:54.977Z,5.42
2018-01-30T02:06:16.110Z,5.39
2018-01-30T02:07:37.750Z,5.45
2018-01-30T02:08:59.362Z,5.4
2018-01-30T02:10:20.948Z,5.31
2018-01-30T02:11:42.541Z,5.3
2018-01-30T02:13:04.144Z,5.25
2018-01-30T02:14:25.757Z,5.3
2018-01-30T02:15:48.064Z,5.28
2018-01-30T02:17:09.684Z,5.25
2018-01-30T02:18:31.543Z,5.2
2018-01-30T02:19:53.255Z,5.17
2018-01-30T02:21:14.957Z,5.13
2018-01-30T02:22:36.567Z,5.1
2018-01-30T02:23:58.004Z,5.17
2018-01-30T02:25:19.923Z,5.17
2018-01-30T02:26:42.037Z,5.17
2018-01-30T02:28:03.737Z,5.07
2018-01-30T02:29:25.363Z,5.09
2018-01-30T02:30:47.044Z,5.03
2018-01-30T02:32:09.225Z,5.12
2018-01-30T02:33:31.095Z,5.02
2018-01-30T02:34:52.447Z,5.03
2018-01-30T02:36:14.333Z,4.94
2018-01-30T02:37:36.727Z,4.92
2018-01-30T02:38:58.597Z,5.02
2018-01-30T02:40:20.597Z,5.02
2018-01-30T02:41:42.514Z,5.02
2018-01-30T02:43:04.165Z,4.99
2018-01-30T02:44:26.005Z,5
2018-01-30T02:45:48.099Z,4.92
2018-01-30T02:47:09.680Z,4.89
2018-01-30T02:48:31.133Z,5.02
2018-01-30T02:49:53.016Z,4.86
2018-01-30T02:51:14.883Z,4.84
2018-01-30T02:52:36.736Z,4.84
2018-01-30T02:53:58.353Z,4.84
2018-01-30T02:55:20.007Z,4.78
2018-01-30T02:56:41.600Z,4.84
2018-01-30T02:58:03.444Z,4.84
2018-01-30T02:59:25.026Z,4.8
2018-01-30T03:00:46.936Z,4.78
2018-01-30T03:02:08.847Z,4.8
2018-01-30T03:03:30.677Z,4.85
2018-01-30T03:04:52.015Z,4.84
2018-01-30T03:06:14.131Z,4.85
2018-01-30T03:07:36.025Z,4.77
2018-01-30T03:08:57.796Z,4.65
2018-01-30T03:10:19.636Z,4.73
2018-01-30T03:11:41.513Z,4.78
2018-01-30T03:13:03.100Z,4.7
2018-01-30T03:14:24.966Z,4.67
2018-01-30T03:15:46.689Z,4.66
2018-01-30T03:17:08.584Z,4.66
2018-01-30T03:18:30.542Z,4.69
2018-01-30T03:19:52.194Z,4.75
2018-01-30T03:21:13.784Z,4.73
2018-01-30T03:22:35.655Z,4.82
2018-01-30T03:23:57.604Z,4.8
2018-01-30T03:25:19.221Z,4.73
2018-01-30T03:26:41.563Z,4.88
2018-01-30T03:28:02.939Z,4.88
2018-01-30T03:29:25.047Z,4.84
2018-01-30T03:30:46.935Z,4.82
2018-01-30T03:32:08.979Z,4.86
2018-01-30T03:33:30.577Z,4.8
2018-01-30T03:34:51.499Z,4.89
2018-01-30T03:36:13.095Z,4.86
2018-01-30T03:37:34.984Z,4.86
2018-01-30T03:38:56.314Z,4.86
2018-01-30T03:40:17.713Z,4.86
2018-01-30T03:41:39.576Z,4.96
2018-01-30T03:43:01.069Z,4.92
2018-01-30T03:44:22.917Z,4.92
2018-01-30T03:45:44.241Z,4.96
2018-01-30T03:47:05.865Z,4.89
2018-01-30T03:48:27.727Z,4.96
2018-01-30T03:49:49.322Z,5.02
2018-01-30T03:51:10.903Z,5.04
2018-01-30T03:52:32.503Z,5.04
2018-01-30T03:53:54.104Z,5.04
2018-01-30T03:55:15.695Z,5.06
2018-01-30T03:56:37.625Z,5.07
2018-01-30T03:57:59.456Z,5.07
2018-01-30T03:59:21.149Z,5.06
2018-01-30T04:00:42.764Z,5.06
2018-01-30T04:02:05.014Z,5.07
2018-01-30T04:03:26.352Z,5.07
2018-01-30T04:04:47.948Z,5.03
2018-01-30T04:06:10.072Z,5.04
2018-01-30T04:07:31.683Z,5.07
2018-01-30T04:08:53.286Z,5.06
2018-01-30T04:10:14.365Z,4.99
2018-01-30T04:11:35.995Z,5
2018-01-30T04:12:57.064Z,4.97
2018-01-30T04:14:19.166Z,5.03
2018-01-30T04:15:41.085Z,4.97
2018-01-30T04:17:02.510Z,4.91
2018-01-30T04:18:24.208Z,5
2018-01-30T04:19:46.059Z,4.94
2018-01-30T04:21:07.732Z,4.89
2018-01-30T04:22:29.858Z,4.86
2018-01-30T04:23:51.397Z,4.94
2018-01-30T04:25:13.630Z,4.89
2018-01-30T04:26:36.028Z,4.97
2018-01-30T04:27:57.665Z,4.82
2018-01-30T04:29:19.308Z,4.88
2018-01-30T04:30:41.187Z,4.85
2018-01-30T04:32:03.022Z,4.88
2018-01-30T04:33:24.392Z,4.89
2018-01-30T04:34:46.030Z,4.75
2018-01-30T04:36:07.877Z,4.82
2018-01-30T04:37:30.007Z,4.82
2018-01-30T04:38:53.093Z,4.84
2018-01-30T04:40:15.243Z,4.8
2018-01-30T04:41:36.568Z,4.73
2018-01-30T04:42:58.694Z,4.69
2018-01-30T04:44:20.560Z,4.66
2018-01-30T04:45:41.893Z,4.69
2018-01-30T04:47:03.825Z,4.65
2018-01-30T04:48:25.984Z,4.66
2018-01-30T04:49:47.850Z,4.66
2018-01-30T04:51:09.461Z,4.59
2018-01-30T04:52:31.328Z,4.65
2018-01-30T04:53:52.694Z,4.69
2018-01-30T04:55:14.825Z,4.65
2018-01-30T04:56:36.433Z,4.63
2018-01-30T04:57:58.286Z,4.59
2018-01-30T04:59:19.894Z,4.54
2018-01-30T05:00:41.495Z,4.52
2018-01-30T05:02:02.845Z,4.54
2018-01-30T05:03:24.413Z,4.47
2018-01-30T05:04:46.309Z,4.52
2018-01-30T05:06:07.655Z,4.47
2018-01-30T05:07:29.304Z,4.45
2018-01-30T05:08:51.232Z,4.42
2018-01-30T05:10:13.351Z,4.42
2018-01-30T05:11:34.958Z,4.52
2018-01-30T05:12:56.334Z,4.5
2018-01-30T05:14:18.550Z,4.45
2018-01-30T05:15:39.975Z,4.45
2018-01-30T05:17:01.844Z,4.41
2018-01-30T05:18:23.436Z,4.41
2018-01-30T05:19:45.598Z,4.4
2018-01-30T05:21:07.353Z,4.36
2018-01-30T05:22:29.225Z,4.34
2018-01-30T05:23:50.561Z,4.36
2018-01-30T05:25:12.654Z,4.33
2018-01-30T05:26:34.524Z,4.3
2018-01-30T05:27:56.133Z,4.24
2018-01-30T05:29:17.893Z,4.15
2018-01-30T05:30:39.751Z,4.18
2018-01-30T05:32:01.889Z,4.18
2018-01-30T05:33:23.498Z,4.09
2018-01-30T05:34:45.446Z,4.16
2018-01-30T05:36:07.397Z,4.15
2018-01-30T05:37:28.750Z,4.12
2018-01-30T05:38:50.619Z,4.05
2018-01-30T05:40:12.646Z,4.09
2018-01-30T05:41:34.774Z,4.05
2018-01-30T05:42:56.469Z,3.98
2018-01-30T05:44:18.618Z,4.05
2018-01-30T05:45:40.546Z,4.02
2018-01-30T05:47:02.455Z,4.08
2018-01-30T05:48:24.357Z,4.05
2018-01-30T05:49:46.297Z,4.04
2018-01-30T05:51:08.584Z,4.04
2018-01-30T05:52:30.780Z,4.09
2018-01-30T05:53:52.657Z,4.06
2018-01-30T05:55:14.896Z,3.98
2018-01-30T05:56:37.007Z,3.98
2018-01-30T05:57:59.138Z,4.09
2018-01-30T05:59:21.034Z,4.04
2018-01-30T06:00:42.649Z,4.12
2018-01-30T06:02:04.304Z,4.04
2018-01-30T06:03:26.496Z,3.9
2018-01-30T06:04:48.358Z,3.93
2018-01-30T06:06:10.452Z,3.91
2018-01-30T06:07:31.815Z,3.93
2018-01-30T06:08:53.947Z,3.9
2018-01-30T06:10:16.085Z,3.91
2018-01-30T06:11:38.233Z,3.94
2018-01-30T06:13:00.082Z,3.98
2018-01-30T06:14:21.703Z,3.91
2018-01-30T06:15:43.867Z,3.94
2018-01-30T06:17:05.728Z,4
2018-01-30T06:18:27.162Z,4
2018-01-30T06:19:49.285Z,4.06
2018-01-30T06:21:10.982Z,4.06
2018-01-30T06:22:32.055Z,4
2018-01-30T06:23:54.207Z,4.08
2018-01-30T06:25:15.781Z,3.94
2018-01-30T06:26:37.734Z,3.87
2018-01-30T06:27:59.342Z,3.96
2018-01-30T06:29:21.198Z,4.02
2018-01-30T06:30:43.552Z,4.02
2018-01-30T06:32:05.142Z,3.96
2018-01-30T06:33:26.810Z,4.02
2018-01-30T06:34:48.667Z,3.98
2018-01-30T06:36:10.540Z,3.97
2018-01-30T06:37:32.653Z,3.98
2018-01-30T06:38:54.853Z,4.04
2018-01-30T06:40:16.702Z,3.9
2018-01-30T06:41:38.298Z,3.96
2018-01-30T06:43:00.049Z,4.04
2018-01-30T06:44:21.720Z,3.98
2018-01-30T06:45:43.592Z,4
2018-01-30T06:47:05.463Z,3.98
2018-01-30T06:48:27.613Z,3.9
2018-01-30T06:49:49.732Z,4.02
2018-01-30T06:51:11.657Z,4
2018-01-30T06:52:33.390Z,3.96
2018-01-30T06:53:55.246Z,3.96
2018-01-30T06:55:17.073Z,4.02
2018-01-30T06:56:39.175Z,3.94
2018-01-30T06:58:00.767Z,3.87
2018-01-30T06:59:22.370Z,3.93
2018-01-30T07:00:44.215Z,3.9
2018-01-30T07:02:06.455Z,3.94
2018-01-30T07:03:28.370Z,3.93
2018-01-30T07:04:50.661Z,3.94
2018-01-30T07:06:12.424Z,3.94
2018-01-30T07:07:34.284Z,3.97
2018-01-30T07:08:55.934Z,3.96
2018-01-30T07:10:18.030Z,3.88
2018-01-30T07:11:40.222Z,3.9
2018-01-30T07:13:02.411Z,3.91
2018-01-30T07:14:24.022Z,3.87
2018-01-30T07:15:46.273Z,3.86
2018-01-30T07:17:07.898Z,3.9
2018-01-30T07:18:29.760Z,3.87
2018-01-30T07:19:51.939Z,3.87
2018-01-30T07:21:14.082Z,3.9
2018-01-30T07:22:35.950Z,3.87
2018-01-30T07:23:57.279Z,3.97
2018-01-30T07:25:18.801Z,3.94
2018-01-30T07:26:42.704Z,4.05
2018-01-30T07:28:04.869Z,4.16
2018-01-30T07:29:26.740Z,4.15
2018-01-30T07:30:48.910Z,4.24
2018-01-30T07:32:10.511Z,4.14
2018-01-30T07:33:32.113Z,4.12
2018-01-30T07:34:54.256Z,4.16
2018-01-30T07:36:15.940Z,4.12
2018-01-30T07:37:37.008Z,4.16
2018-01-30T07:38:58.981Z,4.16
2018-01-30T07:40:21.206Z,4.15
2018-01-30T07:41:43.070Z,4.16
2018-01-30T07:43:04.938Z,4.16
2018-01-30T07:44:27.074Z,4.23
2018-01-30T07:45:49.211Z,4.18
2018-01-30T07:47:10.835Z,4.24
2018-01-30T07:48:32.830Z,4.32
2018-01-30T07:49:54.931Z,4.36
2018-01-30T07:51:16.821Z,4.47
2018-01-30T07:52:38.442Z,4.59
2018-01-30T07:54:00.115Z,4.62
2018-01-30T07:55:21.709Z,4.6
2018-01-30T07:56:43.013Z,4.65
2018-01-30T07:58:04.932Z,4.59
2018-01-30T07:59:26.822Z,4.7
2018-01-30T08:00:48.667Z,4.73
2018-01-30T08:02:10.641Z,4.82
2018-01-30T08:03:32.969Z,4.8
2018-01-30T08:04:54.942Z,4.73
2018-01-30T08:06:16.805Z,4.86
2018-01-30T08:07:38.673Z,4.84
2018-01-30T08:09:00.876Z,4.69
2018-01-30T08:10:23.023Z,4.73
2018-01-30T08:11:44.960Z,4.78
2018-01-30T08:13:06.821Z,4.85
2018-01-30T08:14:28.423Z,4.77
2018-01-30T08:15:50.043Z,4.91
2018-01-30T08:17:11.703Z,4.86
2018-01-30T08:18:33.743Z,4.82
2018-01-30T08:19:55.849Z,4.92
2018-01-30T08:21:17.198Z,4.88
2018-01-30T08:22:39.077Z,5.03
2018-01-30T08:24:01.215Z,5.06
2018-01-30T08:25:22.813Z,5.21
2018-01-30T08:26:44.928Z,5.21
2018-01-30T08:28:06.832Z,5.3
2018-01-30T08:29:28.673Z,5.38
2018-01-30T08:30:50.821Z,5.43
2018-01-30T08:32:12.658Z,5.48
2018-01-30T08:33:34.315Z,5.58
2018-01-30T08:34:56.157Z,5.68
2018-01-30T08:36:17.951Z,5.81
2018-01-30T08:37:39.824Z,5.97
2018-01-30T08:39:01.682Z,5.96
2018-01-30T08:40:23.801Z,5.85
2018-01-30T08:41:45.752Z,5.86
2018-01-30T08:43:07.104Z,5.76
2018-01-30T08:44:28.994Z,5.76
2018-01-30T08:45:50.711Z,5.76
2018-01-30T08:47:12.344Z,5.82
2018-01-30T08:48:34.039Z,5.93
2018-01-30T08:49:55.951Z,5.9
2018-01-30T08:51:17.292Z,5.82
2018-01-30T08:52:39.510Z,5.81
2018-01-30T08:54:01.180Z,5.89
2018-01-30T08:55:23.090Z,5.97
2018-01-30T08:56:44.728Z,5.97
2018-01-30T08:58:06.843Z,6.03
2018-01-30T08:59:28.541Z,6.01
2018-01-30T09:00:50.646Z,5.96
2018-01-30T09:02:12.506Z,5.97
2018-01-30T09:03:34.416Z,5.97
2018-01-30T09:04:56.326Z,5.86
2018-01-30T09:06:18.178Z,5.83
2018-01-30T09:07:39.764Z,5.78
2018-01-30T09:09:01.391Z,5.76
2018-01-30T09:10:23.643Z,5.67
2018-01-30T09:11:45.242Z,5.71
2018-01-30T09:13:07.112Z,5.71
2018-01-30T09:14:28.718Z,5.72
2018-01-30T09:15:50.668Z,5.72
2018-01-30T09:17:12.519Z,5.79
2018-01-30T09:18:34.128Z,5.83
2018-01-30T09:19:56.092Z,5.94
2018-01-30T09:21:17.691Z,5.93
2018-01-30T09:22:39.563Z,6.14
2018-01-30T09:24:01.082Z,6.25
2018-01-30T09:25:23.080Z,6.3
2018-01-30T09:26:44.935Z,6.48
2018-01-30T09:28:06.815Z,6.54
2018-01-30T09:29:28.443Z,6.64
2018-01-30T09:30:50.306Z,6.73
2018-01-30T09:32:12.278Z,6.79
2018-01-30T09:33:34.407Z,6.88
2018-01-30T09:34:57.836Z,6.89
2018-01-30T09:36:20.469Z,6.94
2018-01-30T09:37:42.838Z,6.95
2018-01-30T09:39:05.344Z,6.89
2018-01-30T09:40:27.196Z,6.84
2018-01-30T09:41:49.358Z,6.81
2018-01-30T09:43:10.967Z,6.71
2018-01-30T09:44:32.342Z,6.73
2018-01-30T09:45:54.226Z,6.59
2018-01-30T09:47:17.380Z,6.49
2018-01-30T09:48:39.475Z,6.48
2018-01-30T09:50:02.017Z,6.54
2018-01-30T09:51:23.704Z,6.52
2018-01-30T09:52:45.697Z,6.56
2018-01-30T09:54:07.590Z,6.58
2018-01-30T09:55:29.862Z,6.55
2018-01-30T09:56:51.880Z,6.59
2018-01-30T09:58:14.051Z,6.71
2018-01-30T09:59:35.421Z,6.69
2018-01-30T10:00:57.289Z,6.62
2018-01-30T10:02:19.409Z,6.67
2018-01-30T10:03:41.023Z,6.73
2018-01-30T10:05:02.646Z,6.87
2018-01-30T10:06:24.813Z,6.88
2018-01-30T10:07:46.268Z,7.06
2018-01-30T10:09:07.668Z,7.17
2018-01-30T10:10:30.008Z,7.07
2018-01-30T10:11:51.592Z,7.17
2018-01-30T10:13:13.484Z,7.27
2018-01-30T10:14:35.750Z,7.24
2018-01-30T10:15:57.610Z,7.23
2018-01-30T10:17:19.860Z,7.28
2018-01-30T10:18:41.846Z,7.25
2018-01-30T10:20:04.063Z,7.35
2018-01-30T10:21:26.044Z,7.31
2018-01-30T10:22:47.981Z,7.39
2018-01-30T10:24:09.663Z,7.31
2018-01-30T10:25:31.255Z,7.39
2018-01-30T10:26:53.112Z,7.42
2018-01-30T10:28:14.812Z,7.57
2018-01-30T10:29:36.785Z,7.64
2018-01-30T10:30:58.946Z,7.77
2018-01-30T10:32:20.653Z,7.93
2018-01-30T10:33:42.828Z,7.79
2018-01-30T10:35:04.735Z,7.79
2018-01-30T10:36:26.595Z,7.85
2018-01-30T10:37:48.712Z,7.92
2018-01-30T10:39:10.853Z,7.95
2018-01-30T10:40:32.726Z,7.98
2018-01-30T10:41:54.432Z,7.8
2018-01-30T10:43:16.611Z,7.82
2018-01-30T10:44:38.573Z,7.68
2018-01-30T10:46:00.456Z,7.82
2018-01-30T10:47:21.813Z,7.79
2018-01-30T10:48:43.853Z,7.69
2018-01-30T10:50:05.771Z,7.69
2018-01-30T10:51:28.122Z,7.68
2018-01-30T10:52:49.994Z,7.72
2018-01-30T10:54:12.331Z,7.58
2018-01-30T10:55:34.197Z,7.57
2018-01-30T10:56:55.841Z,7.61
2018-01-30T10:58:17.171Z,7.68
2018-01-30T10:59:39.009Z,7.86
2018-01-30T11:01:01.190Z,7.8
2018-01-30T11:02:23.079Z,7.97
2018-01-30T11:03:45.254Z,8.02
2018-01-30T11:05:07.378Z,7.98
2018-01-30T11:06:29.221Z,7.92
2018-01-30T11:07:50.674Z,8.1
2018-01-30T11:09:12.856Z,8.2
2018-01-30T11:10:34.487Z,8.18
2018-01-30T11:11:56.082Z,8.28
2018-01-30T11:13:17.825Z,8.3
2018-01-30T11:14:39.250Z,8.3
2018-01-30T11:16:00.617Z,8.33
2018-01-30T11:17:22.729Z,8.25
2018-01-30T11:18:44.614Z,8.33
2018-01-30T11:20:06.224Z,8.28
2018-01-30T11:21:28.252Z,8.45
2018-01-30T11:22:49.876Z,8.43
2018-01-30T11:24:11.540Z,8.45
2018-01-30T11:25:33.410Z,8.53
2018-01-30T11:26:55.558Z,8.73
2018-01-30T11:28:17.417Z,8.66
2018-01-30T11:29:39.039Z,8.68
2018-01-30T11:31:00.370Z,8.66
2018-01-30T11:32:22.543Z,8.79
2018-01-30T11:33:44.706Z,8.92
2018-01-30T11:35:06.364Z,8.89
2018-01-30T11:36:28.506Z,8.94
2018-01-30T11:37:50.178Z,8.98
2018-01-30T11:39:12.053Z,8.84
2018-01-30T11:40:33.539Z,8.84
2018-01-30T11:41:55.171Z,8.8
2018-01-30T11:43:17.240Z,8.83
2018-01-30T11:44:38.854Z,8.98
2018-01-30T11:46:00.706Z,8.98
2018-01-30T11:47:22.303Z,8.95
2018-01-30T11:48:44.453Z,8.96
2018-01-30T11:50:05.820Z,8.98
2018-01-30T11:51:27.474Z,8.94
2018-01-30T11:52:49.332Z,9.04
2018-01-30T11:54:11.088Z,8.95
2018-01-30T11:55:32.821Z,8.98
2018-01-30T11:56:54.944Z,8.95
2018-01-30T11:58:17.041Z,8.76
2018-01-30T11:59:38.658Z,8.77
2018-01-30T12:01:00.583Z,8.7
2018-01-30T12:02:22.520Z,8.65
2018-01-30T12:03:44.142Z,8.68
2018-01-30T12:05:06.210Z,8.73
2018-01-30T12:06:27.801Z,8.8
2018-01-30T12:07:49.969Z,8.84
2018-01-30T12:09:12.404Z,8.68
2018-01-30T12:10:34.034Z,8.71
2018-01-30T12:11:55.961Z,8.71
2018-01-30T12:13:17.882Z,8.79
2018-01-30T12:14:40.021Z,8.73
2018-01-30T12:16:02.121Z,8.83
2018-01-30T12:17:24.240Z,8.77
2018-01-30T12:18:46.410Z,8.81
2018-01-30T12:20:08.643Z,8.94
2018-01-30T12:21:30.858Z,9.05
2018-01-30T12:22:52.836Z,9.08
2018-01-30T12:24:14.948Z,8.95
2018-01-30T12:25:36.952Z,8.83
2018-01-30T12:26:58.842Z,8.8
2018-01-30T12:28:20.420Z,8.77
2018-01-30T12:29:42.101Z,8.77
2018-01-30T12:31:04.282Z,8.71
2018-01-30T12:32:25.962Z,8.65
2018-01-30T12:33:47.620Z,8.7
2018-01-30T12:35:09.492Z,8.68
2018-01-30T12:36:31.621Z,8.81
2018-01-30T12:37:53.759Z,8.83
2018-01-30T12:39:15.379Z,8.95
2018-01-30T12:40:36.989Z,9.04
2018-01-30T12:41:58.619Z,9.08
2018-01-30T12:43:20.668Z,9.36
2018-01-30T12:44:42.405Z,9.42
2018-01-30T12:46:04.526Z,9.56
2018-01-30T12:47:26.514Z,9.68
2018-01-30T12:48:48.936Z,9.78
2018-01-30T12:50:10.781Z,9.69
2018-01-30T12:51:32.666Z,9.75
2018-01-30T12:52:54.617Z,9.81
2018-01-30T12:54:16.911Z,9.79
2018-01-30T12:55:39.074Z,9.9
2018-01-30T12:57:01.251Z,9.89
2018-01-30T12:58:23.364Z,10.01
2018-01-30T12:59:45.592Z,10.02
2018-01-30T13:01:07.542Z,9.97
2018-01-30T13:02:29.151Z,10.15
2018-01-30T13:03:51.114Z,10.15
2018-01-30T13:05:12.959Z,10.25
2018-01-30T13:06:34.591Z,10.42
2018-01-30T13:07:56.193Z,10.53
2018-01-30T13:09:18.157Z,10.42
2018-01-30T13:10:40.322Z,10.32
2018-01-30T13:12:02.188Z,10.36
2018-01-30T13:13:24.095Z,10.34
2018-01-30T13:14:46.227Z,10.47
2018-01-30T13:16:08.397Z,10.51
2018-01-30T13:17:30.292Z,10.47
2018-01-30T13:18:51.663Z,10.53
2018-01-30T13:20:13.531Z,10.45
2018-01-30T13:21:34.927Z,10.51
2018-01-30T13:22:56.539Z,10.44
2018-01-30T13:24:18.450Z,10.4
2018-01-30T13:25:40.588Z,10.33
2018-01-30T13:27:02.449Z,10.17
2018-01-30T13:28:24.373Z,9.99
2018-01-30T13:29:46.423Z,9.79
2018-01-30T13:31:08.560Z,9.71
2018-01-30T13:32:30.672Z,9.68
2018-01-30T13:33:52.976Z,9.57
2018-01-30T13:35:14.851Z,9.47
2018-01-30T13:36:36.981Z,9.21
2018-01-30T13:37:58.983Z,9.13
2018-01-30T13:39:20.870Z,9.05
2018-01-30T13:40:42.720Z,8.91
2018-01-30T13:42:04.634Z,8.99
2018-01-30T13:43:26.617Z,8.84
2018-01-30T13:44:48.503Z,8.84
2018-01-30T13:46:10.642Z,8.95
2018-01-30T13:47:32.569Z,8.98
2018-01-30T13:48:54.692Z,9.02
2018-01-30T13:50:16.664Z,9.02
2018-01-30T13:51:38.634Z,8.96
2018-01-30T13:53:00.657Z,8.89
2018-01-30T13:54:22.790Z,8.77
2018-01-30T13:55:44.920Z,8.77
2018-01-30T13:57:06.959Z,8.91
2018-01-30T13:58:28.570Z,8.76
2018-01-30T13:59:50.454Z,8.7
2018-01-30T14:01:12.130Z,8.58
2018-01-30T14:02:34.289Z,8.38
2018-01-30T14:03:56.420Z,8.36
2018-01-30T14:05:18.574Z,8.15
2018-01-30T14:06:40.752Z,8.07
2018-01-30T14:08:02.383Z,7.9
2018-01-30T14:09:24.522Z,7.63
2018-01-30T14:10:46.986Z,7.74
2018-01-30T14:12:09.131Z,7.61
2018-01-30T14:13:31.036Z,7.57
2018-01-30T14:14:52.924Z,7.61
2018-01-30T14:16:15.093Z,7.61
2018-01-30T14:17:37.144Z,7.52
2018-01-30T14:18:58.771Z,7.61
2018-01-30T14:20:20.794Z,7.57
2018-01-30T14:21:42.962Z,7.46
2018-01-30T14:23:05.277Z,7.43
2018-01-30T14:24:27.436Z,7.39
2018-01-30T14:25:49.341Z,7.21
2018-01-30T14:27:11.620Z,7.09
2018-01-30T14:28:33.001Z,7.09
2018-01-30T14:29:54.905Z,7.09
2018-01-30T14:31:17.147Z,7.03
2018-01-30T14:32:39.101Z,6.94
2018-01-30T14:34:01.271Z,7.17
2018-01-30T14:35:23.449Z,6.99
2018-01-30T14:36:45.580Z,6.94
2018-01-30T14:38:07.479Z,6.99
2018-01-30T14:39:29.410Z,7.09
2018-01-30T14:40:51.748Z,7.2
2018-01-30T14:42:13.871Z,7.23
2018-01-30T14:43:36.029Z,7.24
2018-01-30T14:44:57.383Z,7.21
2018-01-30T14:46:19.292Z,7.23
2018-01-30T14:47:41.193Z,7.17
2018-01-30T14:49:03.597Z,7.23
2018-01-30T14:50:25.486Z,7.2
2018-01-30T14:51:47.395Z,6.99
2018-01-30T14:53:09.300Z,6.94
2018-01-30T14:54:31.225Z,6.85
2018-01-30T14:55:52.865Z,6.85
2018-01-30T14:57:15.020Z,6.79
2018-01-30T14:58:37.181Z,6.88
2018-01-30T14:59:59.340Z,6.74
2018-01-30T15:01:20.944Z,6.71
2018-01-30T15:02:42.558Z,6.67
2018-01-30T15:04:04.442Z,6.61
2018-01-30T15:05:26.695Z,6.56
2018-01-30T15:06:49.332Z,6.62
2018-01-30T15:08:11.476Z,6.55
2018-01-30T15:09:33.593Z,6.55
2018-01-30T15:10:55.480Z,6.56
2018-01-30T15:12:17.384Z,6.56
2018-01-30T15:13:39.282Z,6.54
2018-01-30T15:15:01.251Z,6.73
2018-01-30T15:16:23.732Z,6.74
2018-01-30T15:17:46.356Z,6.73
2018-01-30T15:19:08.603Z,6.87
2018-01-30T15:20:30.763Z,6.88
2018-01-30T15:21:53.161Z,6.91
2018-01-30T15:23:15.050Z,6.94
2018-01-30T15:24:37.316Z,6.92
2018-01-30T15:25:59.466Z,6.95
2018-01-30T15:27:21.371Z,6.81
2018-01-30T15:28:43.624Z,6.88
2018-01-30T15:30:05.933Z,6.88
2018-01-30T15:31:27.814Z,6.89
2018-01-30T15:32:49.693Z,6.98
2018-01-30T15:34:11.860Z,6.94
2018-01-30T15:35:33.795Z,7.06
2018-01-30T15:36:55.835Z,7.03
2018-01-30T15:38:17.975Z,6.85
2018-01-30T15:39:40.112Z,6.88
2018-01-30T15:41:02.251Z,6.99
2018-01-30T15:42:24.120Z,7.02
2018-01-30T15:43:46.058Z,6.95
2018-01-30T15:45:08.225Z,6.87
2018-01-30T15:46:30.104Z,6.84
2018-01-30T15:47:51.473Z,6.81
2018-01-30T15:49:13.460Z,6.7
2018-01-30T15:50:35.489Z,6.73
2018-01-30T15:51:57.701Z,6.66
2018-01-30T15:53:19.734Z,6.59
2018-01-30T15:54:41.867Z,6.66
2018-01-30T15:56:03.800Z,6.59
2018-01-30T15:57:26.053Z,6.59
2018-01-30T15:58:47.681Z,6.52
2018-01-30T16:00:09.938Z,6.46
2018-01-30T16:01:32.258Z,6.46
2018-01-30T16:02:54.454Z,6.46
2018-01-30T16:04:16.620Z,6.4
2018-01-30T16:05:38.775Z,6.43
2018-01-30T16:07:00.951Z,6.41
2018-01-30T16:08:22.861Z,6.41
2018-01-30T16:09:45.075Z,6.36
2018-01-30T16:11:07.120Z,6.41
2018-01-30T16:12:29.327Z,6.33
2018-01-30T16:13:51.594Z,6.19
2018-01-30T16:15:13.854Z,6.17
2018-01-30T16:16:35.860Z,6.12
2018-01-30T16:17:58.027Z,6.09
2018-01-30T16:19:20.154Z,6.01
2018-01-30T16:20:41.792Z,5.93
2018-01-30T16:22:03.935Z,5.94
2018-01-30T16:23:26.121Z,5.91
2018-01-30T16:24:48.532Z,5.81
2018-01-30T16:26:10.691Z,5.79
2018-01-30T16:27:32.686Z,5.78
2018-01-30T16:28:54.876Z,5.67
2018-01-30T16:30:16.762Z,5.68
2018-01-30T16:31:38.779Z,5.65
2018-01-30T16:33:01.028Z,5.64
2018-01-30T16:34:23.093Z,5.53
2018-01-30T16:35:45.016Z,5.54
2018-01-30T16:37:07.357Z,5.56
2018-01-30T16:38:29.276Z,5.46
2018-01-30T16:39:51.163Z,5.51
2018-01-30T16:41:13.322Z,5.49
2018-01-30T16:42:35.553Z,5.48
2018-01-30T16:43:57.880Z,5.53
2018-01-30T16:45:20.157Z,5.56
2018-01-30T16:46:42.197Z,5.54
2018-01-30T16:48:04.075Z,5.53
2018-01-30T16:49:25.964Z,5.56
2018-01-30T16:50:48.148Z,5.54
2018-01-30T16:52:10.488Z,5.53
2018-01-30T16:53:32.694Z,5.51
2018-01-30T16:54:54.896Z,5.56
2018-01-30T16:56:16.584Z,5.48
2018-01-30T16:57:38.769Z,5.4
2018-01-30T16:59:01.157Z,5.48
2018-01-30T17:00:23.307Z,5.4
2018-01-30T17:01:45.473Z,5.46
2018-01-30T17:03:07.761Z,5.4
2018-01-30T17:04:29.697Z,5.42
2018-01-30T17:05:52.451Z,5.35
2018-01-30T17:07:14.749Z,5.43
2018-01-30T17:08:36.923Z,5.4
2018-01-30T17:09:58.827Z,5.36
2018-01-30T17:11:20.971Z,5.28
2018-01-30T17:12:43.010Z,5.22
2018-01-30T17:14:05.207Z,5.18
2018-01-30T17:15:27.114Z,5.13
2018-01-30T17:16:49.077Z,5.1
2018-01-30T17:18:11.293Z,5.07
2018-01-30T17:19:33.689Z,5.04
2018-01-30T17:20:55.659Z,5.02
2018-01-30T17:22:17.821Z,4.97
2018-01-30T17:23:39.691Z,4.86
2018-01-30T17:25:01.997Z,5.02
2018-01-30T17:26:23.964Z,4.97
2018-01-30T17:27:45.939Z,4.85
2018-01-30T17:29:07.884Z,4.85
2018-01-30T17:30:29.793Z,4.85
2018-01-30T17:31:51.701Z,4.72
2018-01-30T17:33:13.839Z,4.86
2018-01-30T17:34:35.720Z,4.78
2018-01-30T17:35:57.892Z,4.72
2018-01-30T17:37:20.046Z,4.86
2018-01-30T17:38:42.210Z,4.78
2018-01-30T17:40:04.090Z,4.75
2018-01-30T17:41:26.339Z,4.84
2018-01-30T17:42:48.512Z,4.85
2018-01-30T17:44:10.442Z,4.88
2018-01-30T17:45:32.319Z,4.73
2018-01-30T17:46:54.470Z,4.86
2018-01-30T17:48:16.354Z,4.73
2018-01-30T17:49:38.260Z,4.84
2018-01-30T17:50:59.965Z,4.82
2018-01-30T17:52:22.151Z,4.72
2018-01-30T17:53:43.494Z,4.7
2018-01-30T17:55:05.738Z,4.66
2018-01-30T17:56:27.655Z,4.7
2018-01-30T17:57:49.803Z,4.72
2018-01-30T17:59:12.287Z,4.75
2018-01-30T18:00:34.475Z,4.65
2018-01-30T18:01:56.740Z,4.6
2018-01-30T18:03:19.023Z,4.65
2018-01-30T18:04:41.170Z,4.65
2018-01-30T18:06:03.477Z,4.55
2018-01-30T18:07:25.389Z,4.58
2018-01-30T18:08:47.555Z,4.62
2018-01-30T18:10:09.713Z,4.51
2018-01-30T18:11:31.611Z,4.63
2018-01-30T18:12:53.513Z,4.58